createdAt,value
2019-04-27T00:01:54.256Z,97239.73
2019-04-27T00:04:42.934Z,97236.48
2019-04-27T00:07:33.703Z,97240.09
2019-04-27T00:10:20.374Z,97240.97
2019-04-27T00:12:53.030Z,97241.04
2019-04-27T00:15:51.761Z,97235.77
2019-04-27T00:18:43.371Z,97235.39
2019-04-27T00:21:26.273Z,97236.13
2019-04-27T00:23:57.416Z,97237.34
2019-04-27T00:26:28.873Z,97240.86
2019-04-27T00:29:00.666Z,97241.52
2019-04-27T00:31:33.676Z,97240.80
2019-04-27T00:34:04.669Z,97238.37
2019-04-27T01:03:20.556Z,97230.52
2019-04-27T01:05:53.149Z,97226.99
2019-04-27T01:08:24.506Z,97221.86
2019-04-27T01:10:57.033Z,97221.13
2019-04-27T01:13:29.437Z,97217.14
2019-04-27T01:16:00.790Z,97215.92
2019-04-27T01:18:32.318Z,97217.84
2019-04-27T01:21:03.651Z,97215.83
2019-04-27T01:23:34.691Z,97213.05
2019-04-27T01:26:28.631Z,97215.44
2019-04-27T01:29:03.458Z,97213.66
2019-04-27T01:31:34.427Z,97213.52
2019-04-27T01:34:05.076Z,97203.98
2019-04-27T01:36:37.146Z,97204.42
2019-04-27T01:39:13.302Z,97201.64
2019-04-27T01:41:44.653Z,97201.00
2019-04-27T01:44:15.975Z,97203.06
2019-04-27T01:46:48.576Z,97205.08
2019-04-27T01:49:19.623Z,97203.92
2019-04-27T01:51:50.940Z,97207.27
2019-04-27T01:54:24.186Z,97204.64
2019-04-27T01:56:55.707Z,97197.56
2019-04-27T01:59:28.279Z,97195.92
2019-04-27T02:02:24.097Z,97197.98
2019-04-27T02:05:19.613Z,97200.73
2019-04-27T02:07:51.278Z,97198.60
2019-04-27T02:10:21.903Z,97203.66
2019-04-27T02:12:53.527Z,97196.39
2019-04-27T02:15:25.221Z,97200.55
2019-04-27T02:17:56.579Z,97199.06
2019-04-27T02:20:28.233Z,97201.75
2019-04-27T02:23:01.201Z,97202.39
2019-04-27T02:25:32.549Z,97193.58
2019-04-27T02:28:21.717Z,97195.70
2019-04-27T02:31:23.997Z,97199.22
2019-04-27T02:33:59.604Z,97198.29
2019-04-27T02:36:30.718Z,97189.75
2019-04-27T02:39:01.612Z,97194.88
2019-04-27T02:41:32.671Z,97197.78
2019-04-27T02:44:12.406Z,97194.89
2019-04-27T02:46:43.559Z,97187.16
2019-04-27T02:49:14.915Z,97198.00
2019-04-27T02:51:55.804Z,97191.32
2019-04-27T02:54:27.119Z,97192.38
2019-04-27T02:57:01.602Z,97187.11
2019-04-27T02:59:33.267Z,97188.95
2019-04-27T03:02:10.743Z,97187.80
2019-04-27T03:04:53.090Z,97188.33
2019-04-27T03:07:24.892Z,97187.51
2019-04-27T03:09:56.465Z,97192.05
2019-04-27T03:12:31.274Z,97194.89
2019-04-27T03:15:17.154Z,97189.95
2019-04-27T03:18:12.329Z,97194.95
2019-04-27T03:20:50.447Z,97194.50
2019-04-27T03:23:22.622Z,97194.22
2019-04-27T03:26:15.544Z,97187.82
2019-04-27T03:28:46.957Z,97190.69
2019-04-27T03:31:21.449Z,97194.16
2019-04-27T03:33:57.938Z,97191.84
2019-04-27T03:36:23.699Z,97192.55
2019-04-27T03:38:54.759Z,97185.55
2019-04-27T03:41:26.407Z,97187.64
2019-04-27T03:44:03.321Z,97192.48
2019-04-27T03:46:34.252Z,97194.69
2019-04-27T03:49:05.377Z,97198.97
2019-04-27T03:51:50.709Z,97190.02
2019-04-27T03:54:40.914Z,97195.31
2019-04-27T03:57:19.882Z,97196.48
2019-04-27T04:00:05.631Z,97198.78
2019-04-27T04:02:36.680Z,97198.36
2019-04-27T04:05:10.797Z,97206.67
2019-04-27T04:07:42.274Z,97200.86
2019-04-27T04:10:14.508Z,97205.44
2019-04-27T04:13:03.590Z,97202.30
2019-04-27T04:15:49.821Z,97197.08
2019-04-27T04:18:21.181Z,97198.53
2019-04-27T04:20:55.956Z,97199.75
2019-04-27T04:23:27.108Z,97192.57
2019-04-27T04:25:59.725Z,97194.26
2019-04-27T04:28:44.794Z,97190.78
2019-04-27T04:31:16.107Z,97190.33
2019-04-27T04:33:49.197Z,97194.13
2019-04-27T04:36:20.497Z,97192.06
2019-04-27T04:38:51.454Z,97189.28
2019-04-27T04:41:43.664Z,97186.27
2019-04-27T04:44:23.067Z,97185.58
2019-04-27T04:47:12.008Z,97180.73
2019-04-27T04:49:43.457Z,97175.38
2019-04-27T04:52:14.821Z,97183.06
2019-04-27T04:54:46.434Z,97188.05
2019-04-27T04:57:21.567Z,97186.14
2019-04-27T04:59:52.041Z,97181.53
2019-04-27T05:02:23.674Z,97188.30
2019-04-27T05:04:54.697Z,97188.80
2019-04-27T05:07:26.308Z,97193.49
2019-04-27T05:09:58.735Z,97196.02
2019-04-27T05:12:30.384Z,97197.93
2019-04-27T05:15:01.702Z,97199.27
2019-04-27T05:17:32.986Z,97202.11
2019-04-27T05:20:24.410Z,97195.14
2019-04-27T05:22:54.429Z,97196.95
2019-04-27T05:25:26.097Z,97196.30
2019-04-27T05:27:59.555Z,97194.56
2019-04-27T05:30:30.924Z,97191.89
2019-04-27T05:33:02.900Z,97195.25
2019-04-27T05:35:33.693Z,97198.41
2019-04-27T05:38:07.271Z,97198.56
2019-04-27T05:40:39.886Z,97195.70
2019-04-27T05:43:12.126Z,97192.06
2019-04-27T05:46:39.627Z,97189.09
2019-04-27T05:49:21.697Z,97194.21
2019-04-27T05:51:53.192Z,97196.55
2019-04-27T05:54:25.051Z,97186.01
2019-04-27T05:56:56.926Z,97185.41
2019-04-27T05:59:29.631Z,97184.76
2019-04-27T06:02:00.640Z,97191.89
2019-04-27T06:04:32.347Z,97189.84
2019-04-27T06:07:03.737Z,97197.23
2019-04-27T06:09:34.468Z,97193.84
2019-04-27T06:12:05.410Z,97198.88
2019-04-27T06:14:36.754Z,97191.47
2019-04-27T06:17:07.369Z,97189.91
2019-04-27T06:19:39.097Z,97184.02
2019-04-27T06:22:09.793Z,97179.00
2019-04-27T06:24:40.412Z,97172.14
2019-04-27T06:27:11.734Z,97167.92
2019-04-27T06:29:55.508Z,97161.31
2019-04-27T06:32:26.859Z,97153.82
2019-04-27T06:34:58.980Z,97158.63
2019-04-27T06:37:30.742Z,97155.34
2019-04-27T06:40:13.699Z,97150.77
2019-04-27T06:42:45.365Z,97154.67
2019-04-27T06:45:16.713Z,97151.45
2019-04-27T06:47:48.806Z,97153.45
2019-04-27T06:50:21.116Z,97155.73
2019-04-27T06:52:52.063Z,97156.75
2019-04-27T06:55:22.790Z,97161.27
2019-04-27T06:57:54.181Z,97160.09
2019-04-27T07:00:24.957Z,97161.25
2019-04-27T07:02:56.350Z,97165.98
2019-04-27T07:05:28.936Z,97160.23
2019-04-27T07:08:00.395Z,97166.59
2019-04-27T07:10:32.031Z,97163.74
2019-04-27T07:13:03.478Z,97176.14
2019-04-27T07:15:34.210Z,97172.56
2019-04-27T07:18:05.252Z,97178.98
2019-04-27T07:20:38.753Z,97177.91
2019-04-27T07:23:10.304Z,97179.64
2019-04-27T07:25:41.687Z,97180.04
2019-04-27T07:28:13.263Z,97157.05
2019-04-27T07:30:44.964Z,97184.55
2019-04-27T07:33:16.097Z,97187.73
2019-04-27T07:35:49.024Z,97185.02
2019-04-27T07:38:20.421Z,97185.52
2019-04-27T07:40:52.045Z,97189.67
2019-04-27T07:43:41.652Z,97191.09
2019-04-27T07:46:12.500Z,97189.86
2019-04-27T07:48:55.515Z,97190.75
2019-04-27T07:51:32.043Z,97188.17
2019-04-27T07:53:59.691Z,97197.33
2019-04-27T07:56:30.962Z,97195.59
2019-04-27T07:59:02.629Z,97201.73
2019-04-27T08:01:33.987Z,97193.77
2019-04-27T08:04:04.324Z,97201.27
2019-04-27T08:06:35.692Z,97198.70
2019-04-27T08:09:09.406Z,97197.73
2019-04-27T08:11:40.534Z,97201.83
2019-04-27T08:14:11.876Z,97218.14
2019-04-27T08:16:43.116Z,97213.63
2019-04-27T08:19:14.734Z,97216.50
2019-04-27T08:21:46.794Z,97217.25
2019-04-27T08:24:19.422Z,97222.23
2019-04-27T08:26:56.733Z,97214.58
2019-04-27T08:29:48.685Z,97219.87
2019-04-27T08:32:23.739Z,97221.97
2019-04-27T08:34:54.768Z,97217.39
2019-04-27T08:37:25.527Z,97221.73
2019-04-27T08:39:56.262Z,97220.14
2019-04-27T08:42:29.399Z,97219.87
2019-04-27T08:45:00.260Z,97221.72
2019-04-27T08:47:31.227Z,97225.61
2019-04-27T08:50:02.986Z,97224.27
2019-04-27T08:52:34.944Z,97222.20
2019-04-27T08:55:05.999Z,97227.27
2019-04-27T08:57:38.771Z,97219.84
2019-04-27T09:00:11.675Z,97218.27
2019-04-27T09:02:46.973Z,97215.08
2019-04-27T09:05:19.272Z,97225.45
2019-04-27T09:08:01.136Z,97205.53
2019-04-27T09:10:43.762Z,97211.45
2019-04-27T09:13:29.898Z,97206.16
2019-04-27T09:16:19.395Z,97210.48
2019-04-27T09:18:52.251Z,97200.78
2019-04-27T09:21:23.260Z,97204.20
2019-04-27T09:23:53.970Z,97197.64
2019-04-27T09:26:25.282Z,97201.75
2019-04-27T09:28:55.893Z,97205.35
2019-04-27T09:31:28.760Z,97202.40
2019-04-27T09:34:00.034Z,97203.27
2019-04-27T09:36:31.370Z,97201.69
2019-04-27T09:39:02.017Z,97201.53
2019-04-27T09:41:33.246Z,97201.88
2019-04-27T09:44:05.857Z,97198.06
2019-04-27T09:46:37.614Z,97189.84
2019-04-27T09:49:08.314Z,97196.14
2019-04-27T09:51:40.254Z,97195.58
2019-04-27T09:54:11.630Z,97185.89
2019-04-27T09:56:42.927Z,97196.94
2019-04-27T09:59:14.016Z,97185.08
2019-04-27T10:01:46.536Z,97191.11
2019-04-27T10:04:17.665Z,97183.61
2019-04-27T10:06:49.020Z,97170.98
2019-04-27T10:09:20.342Z,97173.65
2019-04-27T10:11:51.683Z,97157.55
2019-04-27T10:14:23.021Z,97165.10
2019-04-27T10:16:55.754Z,97145.53
2019-04-27T10:19:31.214Z,97152.42
2019-04-27T10:21:59.843Z,97154.70
2019-04-27T10:24:31.184Z,97161.59
2019-04-27T10:27:02.837Z,97155.11
2019-04-27T10:29:35.532Z,97150.08
2019-04-27T10:32:07.032Z,97151.02
2019-04-27T10:34:38.808Z,97148.91
2019-04-27T10:37:10.419Z,97138.86
2019-04-27T10:39:41.625Z,97137.63
2019-04-27T10:42:12.672Z,97135.11
2019-04-27T10:44:43.599Z,97125.98
2019-04-27T10:47:15.840Z,97124.28
2019-04-27T10:49:48.497Z,97120.27
2019-04-27T10:52:19.801Z,97117.67
2019-04-27T10:54:50.435Z,97117.98
2019-04-27T10:57:21.778Z,97111.35
2019-04-27T10:59:52.717Z,97106.79
2019-04-27T11:02:23.402Z,97107.29
2019-04-27T11:05:02.914Z,97108.16
2019-04-27T11:07:36.343Z,97103.94
2019-04-27T11:10:09.809Z,97097.36
2019-04-27T11:12:41.451Z,97100.38
2019-04-27T11:15:13.413Z,97102.28
2019-04-27T11:17:47.242Z,97101.18
2019-04-27T11:20:18.204Z,97094.45
2019-04-27T11:22:49.798Z,97094.55
2019-04-27T11:25:21.324Z,97083.83
2019-04-27T11:27:53.025Z,97088.69
2019-04-27T11:30:24.118Z,97077.33
2019-04-27T11:32:58.901Z,97078.12
2019-04-27T11:35:41.760Z,97066.59
2019-04-27T11:38:12.720Z,97062.41
2019-04-27T11:40:43.772Z,97057.98
2019-04-27T11:43:16.076Z,97059.45
2019-04-27T11:45:47.195Z,97070.83
2019-04-27T11:48:18.642Z,97075.41
2019-04-27T11:50:49.947Z,97069.30
2019-04-27T11:53:23.192Z,97071.81
2019-04-27T11:55:53.608Z,97072.10
2019-04-27T11:58:26.550Z,97062.55
2019-04-27T12:00:59.855Z,97066.45
2019-04-27T12:03:31.103Z,97047.31
2019-04-27T12:06:02.392Z,97052.30
2019-04-27T12:08:33.724Z,97051.22
2019-04-27T12:11:05.922Z,97052.83
2019-04-27T12:13:37.985Z,97051.68
2019-04-27T12:16:09.994Z,97044.15
2019-04-27T12:18:41.288Z,97042.74
2019-04-27T12:21:11.900Z,97038.09
2019-04-27T12:23:43.989Z,97034.46
2019-04-27T12:26:52.792Z,97038.77
2019-04-27T12:29:27.402Z,97034.91
2019-04-27T12:31:58.881Z,97033.47
2019-04-27T12:34:29.830Z,97030.86
2019-04-27T12:37:00.145Z,97029.95
2019-04-27T12:39:30.755Z,97020.34
2019-04-27T12:42:01.491Z,97026.09
2019-04-27T12:44:33.222Z,97023.63
2019-04-27T12:47:06.211Z,97023.55
2019-04-27T12:49:37.585Z,97024.23
2019-04-27T12:52:09.042Z,97023.20
2019-04-27T12:54:47.142Z,97013.47
2019-04-27T12:57:28.680Z,97009.12
2019-04-27T13:00:04.112Z,97002.29
2019-04-27T13:02:35.144Z,96997.45
2019-04-27T13:05:05.869Z,96998.16
2019-04-27T13:07:36.784Z,97000.38
2019-04-27T13:10:08.347Z,96989.08
2019-04-27T13:12:38.961Z,96997.50
2019-04-27T13:15:12.497Z,96980.77
2019-04-27T13:17:43.196Z,96989.91
2019-04-27T13:20:16.478Z,96980.89
2019-04-27T13:22:48.141Z,96966.55
2019-04-27T13:25:20.128Z,96962.69
2019-04-27T13:27:51.304Z,96966.31
2019-04-27T13:30:22.426Z,96961.38
2019-04-27T13:32:53.850Z,96952.05
2019-04-27T13:35:25.936Z,96953.75
2019-04-27T13:37:57.342Z,96937.37
2019-04-27T13:40:28.504Z,96926.20
2019-04-27T13:43:07.788Z,96923.45
2019-04-27T13:46:05.790Z,96916.00
2019-04-27T13:48:55.956Z,96916.08
2019-04-27T13:51:47.226Z,96912.81
2019-04-27T13:54:25.446Z,96907.39
2019-04-27T13:56:51.226Z,96901.48
2019-04-27T13:59:22.777Z,96897.40
2019-04-27T14:01:54.705Z,96892.05
2019-04-27T14:04:26.645Z,96883.33
2019-04-27T14:06:59.009Z,96885.73
2019-04-27T14:09:30.696Z,96876.86
2019-04-27T14:12:08.733Z,96872.41
2019-04-27T14:14:40.513Z,96862.00
2019-04-27T14:17:11.991Z,96870.05
2019-04-27T14:19:43.416Z,96856.64
2019-04-27T14:22:14.566Z,96848.37
2019-04-27T14:24:45.828Z,96843.26
2019-04-27T14:27:18.071Z,96856.56
2019-04-27T14:29:49.820Z,96846.29
2019-04-27T14:32:21.494Z,96855.22
2019-04-27T14:34:52.935Z,96869.54
2019-04-27T14:37:24.283Z,96885.50
2019-04-27T14:39:55.309Z,96902.11
2019-04-27T14:42:26.964Z,96915.11
2019-04-27T14:44:58.888Z,96918.36
2019-04-27T14:47:30.195Z,96916.02
2019-04-27T14:50:01.621Z,96906.66
2019-04-27T14:52:32.515Z,96893.07
2019-04-27T14:55:03.958Z,96885.02
2019-04-27T14:57:35.550Z,96870.98
2019-04-27T15:00:10.176Z,96860.95
2019-04-27T15:02:41.557Z,96858.28
2019-04-27T15:05:12.782Z,96858.59
2019-04-27T15:07:44.558Z,96855.80
2019-04-27T15:10:16.391Z,96863.66
2019-04-27T15:12:47.932Z,96863.76
2019-04-27T15:15:19.099Z,96863.70
2019-04-27T15:17:50.846Z,96864.78
2019-04-27T15:20:44.552Z,96870.03
2019-04-27T15:23:15.887Z,96872.09
2019-04-27T15:25:47.208Z,96877.25
2019-04-27T15:28:22.797Z,96882.62
2019-04-27T15:31:22.474Z,96896.36
2019-04-27T15:34:18.421Z,96894.53
2019-04-27T15:37:14.139Z,96899.43
2019-04-27T15:40:13.746Z,96914.31
2019-04-27T15:42:52.878Z,96932.60
2019-04-27T15:45:24.469Z,96935.70
2019-04-27T15:47:55.641Z,96934.64
2019-04-27T15:50:30.254Z,96963.48
2019-04-27T15:53:02.914Z,96964.09
2019-04-27T15:55:36.926Z,96950.33
2019-04-27T15:58:09.816Z,96953.35
2019-04-27T16:00:41.542Z,96954.17
2019-04-27T16:03:13.476Z,96960.41
2019-04-27T16:06:03.238Z,96948.31
2019-04-27T16:08:38.312Z,96951.66
2019-04-27T16:11:11.774Z,96957.75
2019-04-27T16:13:39.754Z,96956.16
2019-04-27T16:16:11.120Z,96958.35
2019-04-27T16:18:42.042Z,96965.53
2019-04-27T16:21:13.500Z,96963.06
2019-04-27T16:23:45.064Z,96968.03
2019-04-27T16:26:15.952Z,96969.92
2019-04-27T16:28:53.480Z,96987.59
2019-04-27T16:31:24.958Z,96996.78
2019-04-27T16:33:59.207Z,96998.27
2019-04-27T16:36:30.886Z,97007.98
2019-04-27T16:39:12.985Z,97014.39
2019-04-27T16:41:43.990Z,96999.98
2019-04-27T16:44:15.484Z,96997.44
2019-04-27T16:46:48.916Z,96997.90
2019-04-27T16:49:20.946Z,97002.81
2019-04-27T16:51:54.232Z,96996.11
2019-04-27T16:54:28.145Z,97003.08
2019-04-27T16:57:04.902Z,97006.45
2019-04-27T16:59:43.371Z,96999.20
2019-04-27T17:02:08.019Z,97004.77
2019-04-27T17:04:39.999Z,97025.99
2019-04-27T17:07:11.323Z,97015.50
2019-04-27T17:09:46.120Z,97021.64
2019-04-27T17:12:14.962Z,97030.90
2019-04-27T17:14:53.791Z,97029.69
2019-04-27T17:17:31.787Z,97053.66
2019-04-27T17:20:03.938Z,97074.04
2019-04-27T17:22:35.203Z,97048.48
2019-04-27T17:25:08.928Z,97046.00
2019-04-27T17:27:48.447Z,97050.07
2019-04-27T17:30:20.067Z,97061.84
2019-04-27T17:33:18.485Z,97064.34
2019-04-27T17:35:48.378Z,97064.94
2019-04-27T17:38:19.870Z,97073.45
2019-04-27T17:40:51.841Z,97070.79
2019-04-27T17:43:22.958Z,97079.51
2019-04-27T17:45:54.606Z,97084.84
2019-04-27T17:48:28.831Z,97097.84
2019-04-27T17:51:02.627Z,97098.56
2019-04-27T17:53:37.209Z,97112.28
2019-04-27T17:56:08.657Z,97120.54
2019-04-27T17:58:40.963Z,97130.00
2019-04-27T18:01:13.905Z,97127.63
2019-04-27T18:03:45.682Z,97132.22
2019-04-27T18:06:20.535Z,97142.70
2019-04-27T18:08:50.063Z,97140.40
2019-04-27T18:11:21.787Z,97153.25
2019-04-27T18:13:55.972Z,97164.30
2019-04-27T18:16:33.934Z,97161.48
2019-04-27T18:19:14.888Z,97160.27
2019-04-27T18:22:00.928Z,97179.84
2019-04-27T18:24:50.477Z,97185.66
2019-04-27T18:27:39.532Z,97166.06
2019-04-27T18:30:41.936Z,97138.95
2019-04-27T18:33:11.524Z,97151.18
2019-04-27T18:35:42.873Z,97128.92
2019-04-27T18:38:14.196Z,97143.92
2019-04-27T18:40:45.553Z,97146.92
2019-04-27T18:43:18.661Z,97163.95
2019-04-27T18:45:49.996Z,97173.22
2019-04-27T18:48:44.734Z,97177.72
2019-04-27T18:51:35.408Z,97175.13
2019-04-27T18:54:08.004Z,97178.81
2019-04-27T18:56:44.041Z,97192.95
2019-04-27T18:59:15.461Z,97190.79
2019-04-27T19:01:48.840Z,97187.47
2019-04-27T19:04:20.652Z,97185.76
2019-04-27T19:07:00.091Z,97201.25
2019-04-27T19:09:31.629Z,97204.53
2019-04-27T19:12:02.864Z,97218.37
2019-04-27T19:14:34.715Z,97222.50
2019-04-27T19:17:06.082Z,97248.97
2019-04-27T19:19:37.391Z,97261.16
2019-04-27T19:22:09.113Z,97272.11
2019-04-27T19:24:39.833Z,97271.13
2019-04-27T19:27:22.998Z,97277.69
2019-04-27T19:29:56.435Z,97288.02
2019-04-27T19:32:28.208Z,97288.02
2019-04-27T19:34:59.439Z,97289.85
2019-04-27T19:37:30.778Z,97297.19
2019-04-27T19:40:01.530Z,97310.87
2019-04-27T19:42:33.572Z,97319.49
2019-04-27T19:45:29.208Z,97325.86
2019-04-27T19:48:00.898Z,97324.01
2019-04-27T19:50:32.767Z,97319.69
2019-04-27T19:53:03.361Z,97332.58
2019-04-27T19:55:34.671Z,97337.44
2019-04-27T19:58:07.952Z,97344.09
2019-04-27T20:00:50.497Z,97346.05
2019-04-27T20:03:36.368Z,97338.73
2019-04-27T20:06:08.059Z,97346.16
2019-04-27T20:08:41.760Z,97338.34
2019-04-27T20:11:12.662Z,97348.43
2019-04-27T20:13:43.708Z,97341.94
2019-04-27T20:16:16.300Z,97336.70
2019-04-27T20:18:47.983Z,97339.19
2019-04-27T20:21:28.809Z,97324.75
2019-04-27T20:24:01.717Z,97338.14
2019-04-27T20:26:33.306Z,97320.17
2019-04-27T20:29:03.640Z,97315.56
2019-04-27T20:31:35.207Z,97340.97
2019-04-27T20:34:06.186Z,97342.73
2019-04-27T20:36:37.405Z,97335.27
2019-04-27T20:39:11.586Z,97346.81
2019-04-27T20:41:42.645Z,97352.08
2019-04-27T20:44:14.009Z,97359.77
2019-04-27T20:46:45.358Z,97364.39
2019-04-27T20:49:21.488Z,97362.37
2019-04-27T20:52:05.285Z,97351.35
2019-04-27T20:54:36.321Z,97340.02
2019-04-27T20:57:07.051Z,97333.38
2019-04-27T20:59:38.101Z,97353.30
2019-04-27T21:02:26.759Z,97365.23
2019-04-27T21:05:08.242Z,97382.05
2019-04-27T21:07:46.239Z,97370.03
2019-04-27T21:10:18.160Z,97365.38
2019-04-27T21:12:51.745Z,97360.99
2019-04-27T21:15:22.982Z,97348.97
2019-04-27T21:17:54.039Z,97338.17
2019-04-27T21:20:25.851Z,97344.11
2019-04-27T21:22:57.180Z,97356.58
2019-04-27T21:25:28.445Z,97352.92
2019-04-27T21:28:14.326Z,97367.13
2019-04-27T21:30:33.096Z,97368.58
2019-04-27T21:33:04.447Z,97363.13
2019-04-27T21:35:36.292Z,97363.76
2019-04-27T21:38:07.625Z,97374.55
2019-04-27T21:40:38.544Z,97377.48
2019-04-27T21:43:11.352Z,97379.89
2019-04-27T21:45:42.797Z,97376.33
2019-04-27T21:48:13.835Z,97378.70
2019-04-27T21:50:45.132Z,97372.46
2019-04-27T21:53:35.389Z,97370.27
2019-04-27T21:56:11.044Z,97381.31
2019-04-27T21:58:42.223Z,97389.62
2019-04-27T22:01:33.616Z,97384.86
2019-04-27T22:04:05.180Z,97389.73
2019-04-27T22:06:36.025Z,97388.53
2019-04-27T22:09:11.100Z,97389.57
2019-04-27T22:11:41.756Z,97380.55
2019-04-27T22:14:12.660Z,97385.22
2019-04-27T22:16:44.260Z,97385.63
2019-04-27T22:19:15.594Z,97387.80
2019-04-27T22:21:47.247Z,97387.82
2019-04-27T22:24:23.807Z,97382.41
2019-04-27T22:26:55.464Z,97379.42
2019-04-27T22:29:26.912Z,97377.97
2019-04-27T22:31:57.967Z,97372.61
2019-04-27T22:34:31.104Z,97371.94
2019-04-27T22:37:02.803Z,97370.84
2019-04-27T22:39:52.623Z,97379.78
2019-04-27T22:42:41.579Z,97381.16
2019-04-27T22:45:25.608Z,97377.73
2019-04-27T22:48:02.537Z,97390.52
2019-04-27T22:50:33.522Z,97391.59
2019-04-27T22:53:04.209Z,97399.28
2019-04-27T22:55:36.817Z,97415.21
2019-04-27T22:58:17.012Z,97426.30
2019-04-27T23:00:56.041Z,97439.11
2019-04-27T23:03:31.284Z,97442.59
2019-04-27T23:06:01.928Z,97434.45
2019-04-27T23:08:33.892Z,97422.71
2019-04-27T23:11:06.021Z,97420.06
2019-04-27T23:13:37.035Z,97426.14
2019-04-27T23:16:11.569Z,97427.70
2019-04-27T23:18:43.005Z,97421.30
2019-04-27T23:21:13.962Z,97425.63
2019-04-27T23:23:45.115Z,97426.77
2019-04-27T23:26:16.046Z,97427.33
2019-04-27T23:28:52.207Z,97423.38
2019-04-27T23:31:38.405Z,97427.98
2019-04-27T23:34:11.672Z,97427.42
2019-04-27T23:36:44.320Z,97425.06
2019-04-27T23:39:16.133Z,97419.45
2019-04-27T23:41:48.764Z,97414.16
2019-04-27T23:44:20.041Z,97420.67
2019-04-27T23:47:03.270Z,97424.72
2019-04-27T23:49:34.604Z,97429.16
2019-04-27T23:52:16.283Z,97426.98
2019-04-27T23:54:47.886Z,97425.41
2019-04-27T23:57:19.334Z,97433.16
2019-04-27T23:59:51.517Z,97441.48
